Time;durP1;ratioP1;P1;durP2;ratioP2;P2;SDS_P1;SDS_P2;PMS_P1;PMS_P2;Temp;Humidity;BMP_temperature;BMP_pressure;BME280_temperature;BME280_humidity;BME280_pressure;Samples;Min_cycle;Max_cycle;Signal;HPM_P1;HPM_P2
2020/12/05 00:01:08;;;;;;;30.60;19.40;;;0.70;99.90;;;;;;4889584;29;20251;-96
2020/12/05 00:03:40;;;;;;;30.27;18.43;;;0.70;99.90;;;;;;4888003;29;20194;-96
2020/12/05 00:06:20;;;;;;;29.20;19.17;;;0.70;99.90;;;;;;4887741;29;20645;-96
2020/12/05 00:08:50;;;;;;;29.70;19.00;;;0.70;99.90;;;;;;4889419;29;20190;-96
2020/12/05 00:11:25;;;;;;;28.67;18.67;;;0.70;99.90;;;;;;4887422;29;20193;-96
2020/12/05 00:14:09;;;;;;;30.10;19.17;;;0.60;99.90;;;;;;4886954;29;20185;-96
2020/12/05 00:16:35;;;;;;;29.20;18.87;;;0.60;99.90;;;;;;4889511;29;20280;-96
2020/12/05 00:19:03;;;;;;;28.17;18.63;;;0.60;99.90;;;;;;4886708;29;20601;-96
2020/12/05 00:21:29;;;;;;;29.27;20.03;;;0.50;99.90;;;;;;4892549;29;20201;-96
2020/12/05 00:24:47;;;;;;;29.77;18.57;;;0.50;99.90;;;;;;4891214;29;20186;-96
2020/12/05 00:27:13;;;;;;;28.90;18.03;;;0.60;99.90;;;;;;4971669;23;21109;-96
2020/12/05 00:30:16;;;;;;;33.50;18.43;;;0.60;99.90;;;;;;4916248;29;20189;-96
2020/12/05 00:32:42;;;;;;;30.03;19.20;;;0.60;99.90;;;;;;4921983;23;20261;-96
2020/12/05 00:36:02;;;;;;;28.13;18.57;;;0.60;99.90;;;;;;4916432;29;20187;-96
2020/12/05 00:39:10;;;;;;;29.47;17.83;;;0.50;99.90;;;;;;4911336;29;20202;-96
2020/12/05 00:41:43;;;;;;;30.70;18.93;;;0.50;99.90;;;;;;4926589;29;20247;-96
2020/12/05 00:44:10;;;;;;;31.37;19.37;;;0.50;99.90;;;;;;4908692;29;20179;-96
2020/12/05 00:49:23;;;;;;;27.23;18.90;;;0.50;99.90;;;;;;4986280;23;20329;-96
2020/12/05 00:51:49;;;;;;;31.73;19.67;;;0.60;99.90;;;;;;4871212;29;20195;-96
2020/12/05 00:54:23;;;;;;;28.03;18.47;;;0.60;99.90;;;;;;4872010;29;20243;-96
2020/12/05 00:56:57;;;;;;;33.23;20.20;;;0.60;99.90;;;;;;4887287;29;20179;-96
2020/12/05 00:59:30;;;;;;;28.10;18.70;;;0.60;99.90;;;;;;4885588;29;20278;-96
2020/12/05 01:01:56;;;;;;;31.60;19.43;;;0.60;99.90;;;;;;4883600;29;20282;-95
2020/12/05 01:06:58;;;;;;;30.30;19.27;;;0.60;99.90;;;;;;4903950;29;20244;-96
2020/12/05 01:09:56;;;;;;;28.07;19.63;;;0.60;99.90;;;;;;4909211;29;20242;-96
2020/12/05 01:12:26;;;;;;;31.67;20.80;;;0.70;99.90;;;;;;4918989;23;20239;-96
2020/12/05 01:14:52;;;;;;;29.10;19.50;;;0.70;99.90;;;;;;4950458;23;20237;-96
2020/12/05 01:17:26;;;;;;;32.77;20.53;;;0.70;99.90;;;;;;4910689;29;20192;-96
2020/12/05 01:19:56;;;;;;;32.50;20.20;;;0.70;99.90;;;;;;4923998;29;20219;-96
2020/12/05 01:22:23;;;;;;;29.70;19.70;;;0.70;99.90;;;;;;4949301;23;20244;-96
2020/12/05 01:24:54;;;;;;;28.70;19.50;;;0.70;99.90;;;;;;4923075;29;20529;-96
2020/12/05 01:27:20;;;;;;;30.70;19.07;;;0.70;99.90;;;;;;4922537;29;20199;-96
2020/12/05 01:30:00;;;;;;;30.67;20.53;;;0.70;99.90;;;;;;4926763;28;20183;-96
2020/12/05 01:32:27;;;;;;;31.87;20.03;;;0.70;99.90;;;;;;4924487;29;20213;-96
2020/12/05 01:35:06;;;;;;;29.47;19.10;;;0.70;99.90;;;;;;4931250;29;20169;-96
2020/12/05 01:37:37;;;;;;;30.50;18.60;;;0.70;99.90;;;;;;4932165;29;20205;-96
2020/12/05 01:40:29;;;;;;;32.23;18.93;;;0.70;99.90;;;;;;4897146;29;20211;-96
2020/12/05 01:42:56;;;;;;;30.57;19.43;;;0.60;99.90;;;;;;4921133;29;20174;-96
2020/12/05 01:45:28;;;;;;;29.53;18.80;;;0.60;99.90;;;;;;4913345;29;20181;-96
2020/12/05 01:47:57;;;;;;;27.57;18.40;;;0.60;99.90;;;;;;4915518;29;20199;-96
2020/12/05 01:50:30;;;;;;;30.60;19.27;;;0.60;99.90;;;;;;4930422;29;20196;-96
2020/12/05 01:52:57;;;;;;;31.33;19.63;;;0.60;99.90;;;;;;4926331;29;20257;-96
2020/12/05 01:55:23;;;;;;;27.43;18.13;;;0.60;99.90;;;;;;4927244;29;20161;-96
2020/12/05 01:57:58;;;;;;;30.60;20.37;;;0.60;99.90;;;;;;4934147;28;20206;-96
2020/12/05 02:00:27;;;;;;;30.80;20.13;;;0.60;99.90;;;;;;4930365;29;20617;-96
2020/12/05 02:02:59;;;;;;;33.37;20.37;;;0.60;99.90;;;;;;4928600;29;20210;-96
2020/12/05 02:05:43;;;;;;;31.00;20.63;;;0.60;99.90;;;;;;4933658;29;20181;-96
2020/12/05 02:08:15;;;;;;;32.87;18.77;;;0.60;99.90;;;;;;4928323;29;20185;-96
2020/12/05 02:10:49;;;;;;;30.53;19.93;;;0.60;99.90;;;;;;4925148;29;20576;-96
2020/12/05 02:13:48;;;;;;;30.53;18.63;;;0.60;99.90;;;;;;4909992;29;20195;-96
2020/12/05 02:16:16;;;;;;;29.03;18.47;;;0.70;99.90;;;;;;4864838;29;20193;-96
2020/12/05 02:18:46;;;;;;;28.17;18.17;;;0.70;99.90;;;;;;4925123;29;20213;-96
2020/12/05 02:21:20;;;;;;;30.17;19.47;;;0.70;99.90;;;;;;4939160;23;20831;-96
2020/12/05 02:23:46;;;;;;;30.50;19.67;;;0.70;99.90;;;;;;5263884;23;20269;-91
2020/12/05 02:26:13;;;;;;;29.50;19.37;;;0.70;99.90;;;;;;4911327;29;20275;-92
2020/12/05 02:28:38;;;;;;;29.20;19.33;;;0.70;99.90;;;;;;4910650;29;20188;-94
2020/12/05 02:31:06;;;;;;;30.70;19.83;;;0.80;99.90;;;;;;4913444;29;20196;-93
2020/12/05 02:33:31;;;;;;;30.30;19.07;;;0.70;99.90;;;;;;4910732;29;20211;-94
2020/12/05 02:36:04;;;;;;;31.63;20.37;;;0.80;99.90;;;;;;4908679;29;20182;-92
2020/12/05 02:38:54;;;;;;;31.23;19.80;;;0.80;99.90;;;;;;4909870;29;20280;-93
2020/12/05 02:41:21;;;;;;;32.07;20.17;;;0.80;99.90;;;;;;4909331;29;20189;-96
2020/12/05 02:43:47;;;;;;;30.40;20.00;;;0.70;99.90;;;;;;4913292;29;20254;-93
2020/12/05 02:46:13;;;;;;;31.37;20.33;;;0.70;99.90;;;;;;4910191;29;20219;-92
2020/12/05 02:48:39;;;;;;;31.50;19.43;;;0.70;99.90;;;;;;4908044;29;20273;-96
2020/12/05 02:51:04;;;;;;;29.73;19.13;;;0.70;99.90;;;;;;4909746;29;20193;-96
2020/12/05 02:53:30;;;;;;;28.20;18.30;;;0.70;99.90;;;;;;4909149;29;20202;-96
2020/12/05 02:55:57;;;;;;;32.70;19.80;;;0.70;99.90;;;;;;4909343;29;20184;-96
2020/12/05 02:58:22;;;;;;;30.00;19.10;;;0.70;99.90;;;;;;4910105;29;20205;-95
2020/12/05 03:00:48;;;;;;;28.73;18.97;;;0.70;99.90;;;;;;4909578;29;20185;-96
2020/12/05 03:03:13;;;;;;;29.77;19.37;;;0.80;99.90;;;;;;4910008;29;20191;-96
2020/12/05 03:05:53;;;;;;;27.83;18.93;;;0.80;99.90;;;;;;4913125;29;20278;-91
2020/12/05 03:08:20;;;;;;;29.23;19.33;;;0.80;99.90;;;;;;4913467;29;20205;-96
2020/12/05 03:10:46;;;;;;;30.90;19.47;;;0.80;99.90;;;;;;4929762;29;20198;-95
2020/12/05 03:13:12;;;;;;;28.83;19.33;;;0.80;99.90;;;;;;4930276;29;20195;-95
2020/12/05 03:15:40;;;;;;;30.97;19.13;;;0.80;99.90;;;;;;4929626;29;20190;-94
2020/12/05 03:18:06;;;;;;;28.70;18.60;;;0.80;99.90;;;;;;4930635;29;20191;-96
2020/12/05 03:20:31;;;;;;;31.97;19.10;;;0.90;99.90;;;;;;4927638;29;20254;-95
2020/12/05 03:22:57;;;;;;;36.43;19.43;;;0.80;99.90;;;;;;4930857;29;20773;-92
2020/12/05 03:25:37;;;;;;;30.27;19.33;;;0.80;99.90;;;;;;4934174;29;20185;-93
2020/12/05 03:28:02;;;;;;;32.23;19.57;;;0.80;99.90;;;;;;4932772;29;20185;-92
2020/12/05 03:30:28;;;;;;;31.23;19.33;;;0.80;99.90;;;;;;4933430;29;20688;-92
2020/12/05 03:32:55;;;;;;;27.83;18.17;;;0.80;99.90;;;;;;4932713;29;20172;-92
2020/12/05 03:35:44;;;;;;;31.40;20.33;;;0.80;99.90;;;;;;4918172;29;20178;-92
2020/12/05 03:38:10;;;;;;;31.57;18.80;;;0.80;99.90;;;;;;4931575;29;20190;-93
2020/12/05 03:40:37;;;;;;;28.17;18.70;;;0.90;99.90;;;;;;4933187;29;20675;-93
2020/12/05 03:43:04;;;;;;;32.87;18.73;;;0.90;99.90;;;;;;4931758;29;20185;-93
2020/12/05 03:45:32;;;;;;;29.40;18.83;;;0.90;99.90;;;;;;4930495;29;20216;-96
2020/12/05 03:47:58;;;;;;;30.67;18.93;;;0.90;99.90;;;;;;4933292;29;20607;-96
2020/12/05 03:50:24;;;;;;;28.27;17.90;;;0.90;99.90;;;;;;4930872;29;20248;-95
2020/12/05 03:52:50;;;;;;;31.87;19.77;;;0.90;99.90;;;;;;4931698;29;20218;-95
2020/12/05 03:55:20;;;;;;;31.87;19.53;;;1.00;99.90;;;;;;4932932;29;20182;-96
2020/12/05 03:57:45;;;;;;;31.23;18.83;;;1.00;99.90;;;;;;4934004;29;20188;-94
2020/12/05 04:00:11;;;;;;;29.83;18.30;;;0.90;99.90;;;;;;4933189;29;20224;-96
2020/12/05 04:02:37;;;;;;;29.87;18.90;;;0.90;99.90;;;;;;4934171;29;20185;-95
2020/12/05 04:05:04;;;;;;;30.17;18.90;;;0.90;99.90;;;;;;4933508;29;20188;-96
2020/12/05 04:07:30;;;;;;;30.57;19.17;;;0.80;99.90;;;;;;4916195;29;20206;-96
2020/12/05 04:09:55;;;;;;;31.53;19.07;;;0.80;99.90;;;;;;4930789;29;20219;-92
2020/12/05 04:12:21;;;;;;;31.20;19.30;;;0.80;99.90;;;;;;4930640;29;20177;-94
2020/12/05 04:14:48;;;;;;;33.60;19.90;;;0.80;99.90;;;;;;4927349;29;20186;-95
2020/12/05 04:17:13;;;;;;;30.90;19.07;;;0.80;99.90;;;;;;4929485;29;20173;-96
2020/12/05 04:19:39;;;;;;;34.33;19.47;;;0.80;99.90;;;;;;4931592;29;20657;-93
2020/12/05 04:22:05;;;;;;;27.13;17.43;;;0.80;99.90;;;;;;4932591;29;20215;-95
2020/12/05 04:24:30;;;;;;;29.73;19.60;;;0.90;99.90;;;;;;4917015;29;20247;-92
2020/12/05 04:26:57;;;;;;;31.67;20.47;;;0.90;99.90;;;;;;4933239;29;20183;-96
2020/12/05 04:29:23;;;;;;;31.60;20.83;;;0.80;99.90;;;;;;4932765;29;20184;-93
2020/12/05 04:31:49;;;;;;;33.13;20.00;;;0.90;99.90;;;;;;4933081;29;20185;-95
2020/12/05 04:34:14;;;;;;;29.80;18.97;;;0.90;99.90;;;;;;4933462;29;20185;-96
2020/12/05 04:36:45;;;;;;;30.40;19.60;;;0.90;99.90;;;;;;4929139;29;20254;-96
2020/12/05 04:39:11;;;;;;;31.13;19.67;;;0.90;99.90;;;;;;4929733;29;20211;-96
2020/12/05 04:41:37;;;;;;;30.70;19.60;;;0.90;99.90;;;;;;4951954;29;20179;-96
2020/12/05 04:44:02;;;;;;;33.07;19.60;;;0.90;99.90;;;;;;4932149;29;20186;-96
2020/12/05 04:46:32;;;;;;;32.23;19.80;;;0.90;99.90;;;;;;4934889;29;20240;-96
2020/12/05 04:48:59;;;;;;;30.40;19.07;;;0.90;99.90;;;;;;4934095;29;20233;-96
2020/12/05 04:51:33;;;;;;;29.97;19.17;;;0.90;99.90;;;;;;4930885;29;20237;-96
2020/12/05 04:54:01;;;;;;;29.27;18.97;;;0.90;99.90;;;;;;4932848;29;20174;-96
2020/12/05 04:56:36;;;;;;;30.00;18.90;;;0.90;99.90;;;;;;4932980;29;20182;-96
2020/12/05 04:59:08;;;;;;;33.70;20.00;;;0.90;99.90;;;;;;4932891;29;20203;-96
2020/12/05 05:01:36;;;;;;;32.97;19.97;;;0.90;99.90;;;;;;4932919;29;20189;-96
2020/12/05 05:04:03;;;;;;;31.47;19.17;;;0.90;99.90;;;;;;4932363;29;20183;-96
2020/12/05 05:06:32;;;;;;;28.77;19.20;;;1.00;99.90;;;;;;4931321;29;20188;-96
2020/12/05 05:08:58;;;;;;;29.10;19.10;;;1.00;99.90;;;;;;4930657;29;20181;-95
2020/12/05 05:11:29;;;;;;;29.63;18.70;;;1.00;99.90;;;;;;4932234;29;20192;-96
2020/12/05 05:14:18;;;;;;;30.07;18.90;;;1.00;99.90;;;;;;4918685;29;20182;-96
2020/12/05 05:17:13;;;;;;;34.87;19.33;;;1.00;99.90;;;;;;4950014;29;20220;-95
2020/12/05 05:19:38;;;;;;;32.23;19.73;;;1.00;99.90;;;;;;4933306;29;20216;-96
2020/12/05 05:22:05;;;;;;;35.53;22.63;;;1.00;99.90;;;;;;4934386;29;20221;-96
2020/12/05 05:24:31;;;;;;;33.07;19.47;;;1.00;99.90;;;;;;4933258;29;20238;-96
2020/12/05 05:27:01;;;;;;;31.40;19.07;;;1.00;99.90;;;;;;4928799;29;20185;-96
2020/12/05 05:29:32;;;;;;;33.77;19.77;;;1.00;99.90;;;;;;4921448;29;20182;-93
2020/12/05 05:32:14;;;;;;;31.37;19.23;;;1.00;99.90;;;;;;4923409;29;20189;-96
2020/12/05 05:34:43;;;;;;;31.10;19.73;;;1.10;99.90;;;;;;4923169;29;20194;-92
2020/12/05 05:37:25;;;;;;;30.10;18.90;;;1.10;99.90;;;;;;4922063;29;20210;-91
2020/12/05 05:39:55;;;;;;;29.83;18.80;;;1.10;99.90;;;;;;4921765;29;20260;-92
2020/12/05 05:42:39;;;;;;;31.30;19.10;;;1.10;99.90;;;;;;4925817;29;20186;-94
2020/12/05 05:45:27;;;;;;;30.73;18.53;;;1.10;99.90;;;;;;4924075;29;20220;-94
2020/12/05 05:48:02;;;;;;;32.67;20.27;;;1.10;99.90;;;;;;4936160;29;20178;-95
2020/12/05 05:50:30;;;;;;;29.63;19.80;;;1.00;99.90;;;;;;4936339;29;20232;-96
2020/12/05 05:52:58;;;;;;;29.57;18.87;;;1.00;99.90;;;;;;4936882;29;20182;-96
2020/12/05 05:55:48;;;;;;;28.97;19.10;;;1.00;99.90;;;;;;4919685;29;20209;-96
2020/12/05 05:58:16;;;;;;;31.00;19.57;;;1.00;99.90;;;;;;4933385;29;20166;-96
2020/12/05 06:00:44;;;;;;;32.40;20.17;;;1.00;99.90;;;;;;4918472;29;20220;-96
2020/12/05 06:03:24;;;;;;;33.03;18.93;;;1.00;99.90;;;;;;4933445;29;20186;-96
2020/12/05 06:06:01;;;;;;;31.03;20.00;;;1.00;99.90;;;;;;4936406;29;20194;-96
2020/12/05 06:08:28;;;;;;;34.43;19.83;;;0.90;99.90;;;;;;4933650;29;20198;-96
2020/12/05 06:10:59;;;;;;;33.70;20.43;;;0.90;99.90;;;;;;4931240;29;20620;-96
2020/12/05 06:13:30;;;;;;;30.47;19.43;;;0.90;99.90;;;;;;4930027;29;20238;-96
2020/12/05 06:16:08;;;;;;;33.87;20.53;;;0.90;99.90;;;;;;4930473;29;20190;-96
2020/12/05 06:18:34;;;;;;;38.17;20.07;;;0.90;99.90;;;;;;4932996;29;20644;-96
2020/12/05 06:20:59;;;;;;;33.57;21.27;;;0.90;99.90;;;;;;4927570;29;20178;-92
2020/12/05 06:23:31;;;;;;;32.97;20.13;;;0.90;99.90;;;;;;4931792;29;20233;-92
2020/12/05 06:26:00;;;;;;;32.27;20.47;;;0.90;99.90;;;;;;4933438;29;20526;-92
2020/12/05 06:28:27;;;;;;;31.87;19.67;;;0.90;99.90;;;;;;4930962;29;20178;-96
2020/12/05 06:30:53;;;;;;;33.60;19.97;;;0.90;99.90;;;;;;4931290;29;20617;-93
2020/12/05 06:33:44;;;;;;;30.53;19.50;;;1.00;99.90;;;;;;4930796;29;20186;-96
2020/12/05 06:36:51;;;;;;;35.30;20.77;;;1.00;99.90;;;;;;4929773;29;20242;-95
2020/12/05 06:39:18;;;;;;;33.97;20.47;;;0.90;99.90;;;;;;4928545;29;20304;-94
2020/12/05 06:41:50;;;;;;;32.27;20.17;;;1.00;99.90;;;;;;4928439;29;20179;-92
2020/12/05 06:44:17;;;;;;;32.37;20.90;;;0.90;99.90;;;;;;4926790;29;20210;-93
2020/12/05 06:47:03;;;;;;;36.23;21.00;;;1.00;99.90;;;;;;4926754;29;20195;-92
2020/12/05 06:49:37;;;;;;;49.97;30.77;;;0.90;99.90;;;;;;4929702;29;20178;-92
2020/12/05 06:52:24;;;;;;;45.73;27.47;;;0.90;99.90;;;;;;4930648;29;20189;-91
2020/12/05 06:54:57;;;;;;;36.37;22.60;;;0.90;99.90;;;;;;4928036;29;20253;-94
2020/12/05 06:57:32;;;;;;;34.70;21.43;;;1.00;99.90;;;;;;4929592;29;20179;-92
2020/12/05 07:00:14;;;;;;;32.87;21.23;;;0.90;99.90;;;;;;4932627;29;20233;-91
2020/12/05 07:02:47;;;;;;;32.03;20.37;;;1.00;99.90;;;;;;4932508;29;20204;-96
2020/12/05 07:05:19;;;;;;;34.23;21.53;;;1.00;99.90;;;;;;4930645;29;20206;-92
2020/12/05 07:07:52;;;;;;;32.83;20.57;;;1.00;99.90;;;;;;4930745;29;20181;-94
2020/12/05 07:10:38;;;;;;;31.40;20.13;;;1.00;99.90;;;;;;4930734;29;20183;-95
2020/12/05 07:13:26;;;;;;;34.57;20.63;;;1.00;99.90;;;;;;4930616;29;20196;-95
2020/12/05 07:16:22;;;;;;;30.97;19.60;;;1.00;99.90;;;;;;4930388;29;20258;-92
2020/12/05 07:18:54;;;;;;;34.53;20.30;;;1.00;99.90;;;;;;4909221;29;20218;-96
2020/12/05 07:21:21;;;;;;;28.80;19.33;;;1.00;99.90;;;;;;4909329;29;20607;-92
2020/12/05 07:23:48;;;;;;;30.50;19.77;;;1.00;99.90;;;;;;4888578;29;20245;-93
2020/12/05 07:26:15;;;;;;;28.57;18.40;;;1.00;99.90;;;;;;4905043;29;20191;-92
2020/12/05 07:28:52;;;;;;;31.90;19.47;;;1.00;99.90;;;;;;4906422;29;20182;-93
2020/12/05 07:31:19;;;;;;;29.17;18.40;;;1.00;99.90;;;;;;4889072;29;20191;-93
2020/12/05 07:33:46;;;;;;;30.10;19.33;;;1.00;99.90;;;;;;4904784;29;20183;-93
2020/12/05 07:36:37;;;;;;;32.07;18.97;;;1.00;99.90;;;;;;4905338;29;20223;-92
2020/12/05 07:39:03;;;;;;;29.73;19.57;;;1.00;99.90;;;;;;4904903;29;20242;-92
2020/12/05 07:41:29;;;;;;;30.60;20.37;;;1.00;99.90;;;;;;4908277;29;20183;-94
2020/12/05 07:43:55;;;;;;;32.87;20.17;;;0.90;99.90;;;;;;4905715;29;20184;-93
2020/12/05 07:46:33;;;;;;;32.07;20.13;;;1.00;99.90;;;;;;4904691;29;20183;-93
2020/12/05 07:49:00;;;;;;;32.30;20.27;;;0.90;99.90;;;;;;4905990;29;20175;-92
2020/12/05 07:51:27;;;;;;;31.03;19.33;;;1.00;99.90;;;;;;4906139;29;20179;-93
2020/12/05 07:53:53;;;;;;;30.20;19.90;;;0.90;99.90;;;;;;4905058;29;20670;-91
2020/12/05 07:56:21;;;;;;;33.07;21.10;;;0.90;99.90;;;;;;4906405;29;20182;-91
2020/12/05 07:58:52;;;;;;;32.60;20.87;;;1.00;99.90;;;;;;4905330;29;20664;-92
2020/12/05 08:01:58;;;;;;;30.80;19.77;;;0.90;99.90;;;;;;4904768;29;20175;-93
2020/12/05 08:04:45;;;;;;;34.03;21.00;;;1.00;99.90;;;;;;4905160;29;20179;-92
2020/12/05 08:07:37;;;;;;;33.97;20.47;;;1.00;99.90;;;;;;4904630;29;20190;-94
2020/12/05 08:10:11;;;;;;;35.00;20.43;;;1.00;99.90;;;;;;4903361;29;20175;-94
2020/12/05 08:12:59;;;;;;;31.73;20.47;;;1.00;99.90;;;;;;4902539;29;20179;-92
2020/12/05 08:15:27;;;;;;;35.17;21.67;;;1.10;99.90;;;;;;4902664;29;20203;-92
2020/12/05 08:17:58;;;;;;;34.03;21.50;;;1.00;99.90;;;;;;4902339;29;20189;-91
2020/12/05 08:20:25;;;;;;;33.43;22.43;;;1.10;99.90;;;;;;4901345;29;20216;-90
2020/12/05 08:22:50;;;;;;;33.47;22.13;;;1.10;99.90;;;;;;4903316;29;20187;-95
2020/12/05 08:25:16;;;;;;;35.47;21.80;;;1.10;99.90;;;;;;4905483;29;20182;-93
2020/12/05 08:27:42;;;;;;;35.10;22.53;;;1.20;99.90;;;;;;4906432;29;20178;-90
2020/12/05 08:30:09;;;;;;;33.93;21.17;;;1.20;99.90;;;;;;4905682;29;20189;-91
2020/12/05 08:32:36;;;;;;;33.67;21.07;;;1.20;99.90;;;;;;4905800;29;20187;-93
2020/12/05 08:35:10;;;;;;;34.97;22.17;;;1.20;99.90;;;;;;4905664;29;20188;-91
2020/12/05 08:37:47;;;;;;;36.67;22.50;;;1.30;99.90;;;;;;4906620;29;20193;-96
2020/12/05 08:40:17;;;;;;;34.73;21.87;;;1.30;99.90;;;;;;4905496;29;20231;-93
2020/12/05 08:42:47;;;;;;;34.73;20.93;;;1.30;99.90;;;;;;4906905;29;20190;-91
2020/12/05 08:45:17;;;;;;;32.63;21.43;;;1.30;99.90;;;;;;4905948;29;20187;-91
2020/12/05 08:47:47;;;;;;;33.40;22.03;;;1.30;99.90;;;;;;4908758;29;20206;-94
2020/12/05 08:50:32;;;;;;;36.80;23.20;;;1.30;99.90;;;;;;4911659;29;20217;-95
2020/12/05 08:53:00;;;;;;;33.83;21.83;;;1.30;99.90;;;;;;4908323;29;20218;-92
2020/12/05 08:55:33;;;;;;;37.60;24.20;;;1.30;99.90;;;;;;4919557;29;20226;-90
2020/12/05 08:58:03;;;;;;;34.60;22.17;;;1.30;99.90;;;;;;4922308;29;20525;-90
2020/12/05 09:00:31;;;;;;;37.43;22.10;;;1.40;99.90;;;;;;4921986;29;20228;-91
2020/12/05 09:02:57;;;;;;;34.40;22.50;;;1.40;99.90;;;;;;4938945;29;20243;-90
2020/12/05 09:05:23;;;;;;;35.97;23.83;;;1.40;99.90;;;;;;4919617;29;20617;-91
2020/12/05 09:07:58;;;;;;;30.40;20.70;;;1.50;99.90;;;;;;4903507;29;20206;-91
2020/12/05 09:10:25;;;;;;;35.27;22.20;;;1.50;99.90;;;;;;4902575;29;20236;-90
2020/12/05 09:12:51;;;;;;;37.47;21.50;;;1.60;99.90;;;;;;4903729;29;20270;-89
2020/12/05 09:15:17;;;;;;;36.33;22.20;;;1.60;99.90;;;;;;4905698;29;20227;-91
2020/12/05 09:17:45;;;;;;;31.20;21.33;;;1.60;99.90;;;;;;4922751;29;20192;-91
2020/12/05 09:20:14;;;;;;;31.87;21.00;;;1.60;99.90;;;;;;4923426;29;20222;-92
2020/12/05 09:22:46;;;;;;;32.87;21.10;;;1.70;99.90;;;;;;4923483;29;20184;-90
2020/12/05 09:25:38;;;;;;;33.03;21.27;;;1.70;99.90;;;;;;4925904;29;20180;-91
2020/12/05 09:28:19;;;;;;;36.40;21.80;;;1.80;99.90;;;;;;4918905;29;20197;-90
2020/12/05 09:30:45;;;;;;;30.47;20.23;;;1.80;99.90;;;;;;4914638;29;20186;-90
2020/12/05 09:33:15;;;;;;;30.63;20.13;;;1.80;99.90;;;;;;4927198;29;20181;-93
2020/12/05 09:35:42;;;;;;;31.70;20.30;;;1.80;99.90;;;;;;4929323;29;20269;-91
2020/12/05 09:38:09;;;;;;;31.17;20.50;;;1.90;99.90;;;;;;4930291;29;20188;-93
2020/12/05 09:40:35;;;;;;;30.70;19.83;;;1.90;99.90;;;;;;4929327;29;20240;-91
2020/12/05 09:43:01;;;;;;;29.47;19.87;;;1.90;99.90;;;;;;4930126;29;20185;-95
2020/12/05 09:45:28;;;;;;;33.07;21.57;;;1.90;99.90;;;;;;4928567;29;20200;-92
2020/12/05 09:47:55;;;;;;;31.50;19.53;;;2.00;99.90;;;;;;4917861;29;20194;-90
2020/12/05 09:50:21;;;;;;;32.37;20.67;;;2.00;99.90;;;;;;4908294;29;20194;-93
2020/12/05 09:52:47;;;;;;;32.07;20.67;;;2.00;99.90;;;;;;4910467;29;20188;-92
2020/12/05 09:55:13;;;;;;;32.40;20.97;;;2.00;99.90;;;;;;4908912;29;20200;-91
2020/12/05 09:57:40;;;;;;;35.37;21.23;;;2.00;99.90;;;;;;4908525;29;20182;-91
2020/12/05 10:00:08;;;;;;;32.33;19.20;;;2.10;99.90;;;;;;4909370;29;20297;-93
2020/12/05 10:02:36;;;;;;;30.93;20.30;;;2.10;99.90;;;;;;4918773;29;20163;-96
2020/12/05 10:05:04;;;;;;;31.17;19.20;;;2.10;99.90;;;;;;4938116;29;20193;-96
2020/12/05 10:07:36;;;;;;;28.90;19.00;;;2.20;99.90;;;;;;4918928;29;20238;-96
2020/12/05 10:10:04;;;;;;;28.37;18.57;;;2.30;99.90;;;;;;4935698;29;20178;-96
2020/12/05 10:12:33;;;;;;;27.07;16.93;;;2.40;99.90;;;;;;4919150;29;20218;-95
2020/12/05 10:14:59;;;;;;;27.67;17.80;;;2.60;99.90;;;;;;4919784;29;20191;-96
2020/12/05 10:17:25;;;;;;;26.40;16.77;;;2.70;99.90;;;;;;4905946;29;20203;-95
2020/12/05 10:19:51;;;;;;;25.27;16.43;;;2.80;99.90;;;;;;4922003;29;20218;-94
2020/12/05 10:22:16;;;;;;;23.13;16.03;;;3.00;99.90;;;;;;4921669;29;20198;-96
2020/12/05 10:24:42;;;;;;;24.17;16.23;;;3.10;99.90;;;;;;4916864;29;20228;-95
2020/12/05 10:27:07;;;;;;;22.43;15.43;;;3.10;99.90;;;;;;4918057;29;20250;-95
2020/12/05 10:29:33;;;;;;;26.83;16.53;;;3.10;99.90;;;;;;4918866;29;20235;-96
2020/12/05 10:31:59;;;;;;;27.20;17.27;;;3.10;99.90;;;;;;4919123;29;20490;-95
2020/12/05 10:34:25;;;;;;;26.90;16.33;;;3.20;99.90;;;;;;4918658;29;20197;-93
2020/12/05 10:36:54;;;;;;;21.13;14.90;;;3.20;99.90;;;;;;4919039;29;20180;-90
2020/12/05 10:39:21;;;;;;;21.83;14.30;;;3.20;99.90;;;;;;4918416;29;20222;-93
2020/12/05 10:41:50;;;;;;;22.77;14.70;;;3.30;99.90;;;;;;4916752;29;20180;-96
2020/12/05 10:44:17;;;;;;;23.97;14.53;;;3.30;99.90;;;;;;4914472;29;20184;-95
2020/12/05 10:46:49;;;;;;;20.57;13.17;;;3.30;99.90;;;;;;4917239;29;20178;-95
2020/12/05 10:49:35;;;;;;;21.77;14.27;;;3.40;99.90;;;;;;4916476;29;20171;-96
2020/12/05 10:52:01;;;;;;;20.00;12.57;;;3.50;99.90;;;;;;4919231;29;20193;-90
2020/12/05 10:54:26;;;;;;;19.03;13.00;;;3.50;99.90;;;;;;4915308;29;20183;-96
2020/12/05 10:56:52;;;;;;;22.03;12.90;;;3.50;99.90;;;;;;4914123;29;20207;-95
2020/12/05 10:59:41;;;;;;;19.00;12.33;;;3.50;99.90;;;;;;4899296;29;20239;-94
2020/12/05 11:02:06;;;;;;;16.90;11.67;;;3.50;99.90;;;;;;4915807;29;20794;-94
2020/12/05 11:04:32;;;;;;;18.63;11.73;;;3.60;99.90;;;;;;4914971;29;20195;-96
2020/12/05 11:06:58;;;;;;;17.43;11.60;;;3.60;99.90;;;;;;4912814;29;20251;-96
2020/12/05 11:09:32;;;;;;;17.03;11.50;;;3.70;99.90;;;;;;4914115;29;20190;-96
2020/12/05 11:12:00;;;;;;;17.03;11.67;;;3.80;99.90;;;;;;4913684;29;20280;-95
2020/12/05 11:14:26;;;;;;;13.90;10.63;;;3.90;99.90;;;;;;4912463;29;20201;-96
2020/12/05 11:16:51;;;;;;;17.57;10.87;;;4.00;99.90;;;;;;4914218;29;20618;-90
2020/12/05 11:19:18;;;;;;;16.73;9.33;;;4.00;99.90;;;;;;4913441;29;20226;-96
2020/12/05 11:21:45;;;;;;;14.60;9.50;;;3.90;99.90;;;;;;4914272;29;20171;-95
2020/12/05 11:24:11;;;;;;;14.90;9.30;;;3.90;99.90;;;;;;4927014;29;20253;-96
2020/12/05 11:26:37;;;;;;;12.47;9.13;;;3.90;99.90;;;;;;4916398;29;20181;-93
2020/12/05 11:29:04;;;;;;;14.10;9.03;;;4.00;99.90;;;;;;4918422;29;20189;-91
2020/12/05 11:31:31;;;;;;;13.20;9.13;;;4.00;99.90;;;;;;4916199;29;20211;-91
2020/12/05 11:33:56;;;;;;;11.83;8.50;;;4.00;99.90;;;;;;4916866;29;20218;-91
2020/12/05 11:36:22;;;;;;;11.20;7.90;;;4.00;99.90;;;;;;4917100;29;20190;-91
2020/12/05 11:38:56;;;;;;;11.57;8.43;;;4.10;99.90;;;;;;4913666;29;20265;-94
2020/12/05 11:41:22;;;;;;;11.50;8.17;;;4.10;99.90;;;;;;4931677;29;20204;-94
2020/12/05 11:43:47;;;;;;;12.37;8.03;;;4.20;99.90;;;;;;4928387;29;20182;-93
2020/12/05 11:46:13;;;;;;;11.97;8.00;;;4.20;99.90;;;;;;4914301;29;20198;-95
2020/12/05 11:48:44;;;;;;;10.93;7.77;;;4.20;99.90;;;;;;4916527;29;20233;-96
2020/12/05 11:51:09;;;;;;;13.40;8.00;;;4.20;99.90;;;;;;4915019;29;20221;-91
2020/12/05 11:53:36;;;;;;;12.33;8.40;;;4.20;99.90;;;;;;4917213;29;20225;-92
2020/12/05 11:56:02;;;;;;;14.70;8.40;;;4.20;99.90;;;;;;4917560;29;20240;-91
2020/12/05 11:58:28;;;;;;;11.40;7.93;;;4.20;99.90;;;;;;4896908;29;20194;-93
2020/12/05 12:00:54;;;;;;;11.17;7.87;;;4.30;99.90;;;;;;4909122;29;20210;-94
2020/12/05 12:03:20;;;;;;;10.40;8.03;;;4.40;99.90;;;;;;4909798;29;20212;-93
2020/12/05 12:05:45;;;;;;;11.60;7.47;;;4.40;99.90;;;;;;4910735;29;20194;-96
2020/12/05 12:08:11;;;;;;;10.97;8.13;;;4.40;99.90;;;;;;4912484;29;20250;-96
2020/12/05 12:10:53;;;;;;;10.77;7.57;;;4.50;99.90;;;;;;4910373;29;20295;-95
2020/12/05 12:13:20;;;;;;;12.53;8.03;;;4.50;99.90;;;;;;4912293;29;20185;-96
2020/12/05 12:15:46;;;;;;;10.90;7.73;;;4.40;99.90;;;;;;4912389;29;20230;-96
2020/12/05 12:18:12;;;;;;;10.73;7.40;;;4.40;99.90;;;;;;4911227;29;20186;-92
2020/12/05 12:20:40;;;;;;;12.00;7.63;;;4.40;99.90;;;;;;4912476;29;20218;-91
2020/12/05 12:23:06;;;;;;;11.23;7.30;;;4.50;99.90;;;;;;4912119;29;20214;-91
2020/12/05 12:25:31;;;;;;;13.10;8.40;;;4.60;99.90;;;;;;4910955;29;20193;-91
2020/12/05 12:27:57;;;;;;;11.00;8.10;;;4.50;99.90;;;;;;4911032;29;20190;-94
2020/12/05 12:30:25;;;;;;;12.93;8.17;;;4.50;99.90;;;;;;4909634;29;20187;-94
2020/12/05 12:32:51;;;;;;;9.70;6.90;;;4.50;99.90;;;;;;4910982;29;20170;-95
2020/12/05 12:35:16;;;;;;;11.03;7.47;;;4.50;99.90;;;;;;4909772;29;20200;-94
2020/12/05 12:37:42;;;;;;;10.37;6.80;;;4.50;99.90;;;;;;4906151;29;20225;-92
2020/12/05 12:40:11;;;;;;;8.80;6.80;;;4.60;99.90;;;;;;4920964;29;20553;-91
2020/12/05 12:42:36;;;;;;;10.57;7.00;;;4.60;99.90;;;;;;4921884;29;20174;-90
2020/12/05 12:45:02;;;;;;;9.93;7.17;;;4.60;99.90;;;;;;4921779;29;20182;-91
2020/12/05 12:50:06;;;;;;;10.43;7.00;;;4.60;99.90;;;;;;4938982;29;20204;-91
2020/12/05 12:52:32;;;;;;;9.57;7.20;;;4.50;99.90;;;;;;4922451;29;20594;-91
2020/12/05 12:54:57;;;;;;;13.53;7.57;;;4.50;99.90;;;;;;4922175;29;20205;-92
2020/12/05 12:57:27;;;;;;;11.23;7.37;;;4.60;99.90;;;;;;4923410;29;20182;-92
2020/12/05 12:59:53;;;;;;;11.40;7.67;;;4.60;99.90;;;;;;4922848;29;20217;-92
2020/12/05 13:02:19;;;;;;;12.30;7.77;;;4.60;99.90;;;;;;4923943;29;20206;-93
2020/12/05 13:04:44;;;;;;;11.30;7.43;;;4.60;99.90;;;;;;4923831;29;20196;-92